sensor_id;sensor_type;location;lat;lon;timestamp;pressure;altitude;pressure_sealevel;temperature;humidity
69570;BME280;56781;42.292;23.146;2023-08-08T00:02:13;95433.44;;;15.06;100.00
69570;BME280;56781;42.292;23.146;2023-08-08T00:04:40;95419.63;;;14.87;100.00
69570;BME280;56781;42.292;23.146;2023-08-08T00:07:07;95413.91;;;14.68;100.00
69570;BME280;56781;42.292;23.146;2023-08-08T00:09:35;95411.69;;;14.70;100.00
69570;BME280;56781;42.292;23.146;2023-08-08T00:12:02;95410.13;;;14.69;100.00
69570;BME280;56781;42.292;23.146;2023-08-08T00:14:29;95416.09;;;14.74;100.00
69570;BME280;56781;42.292;23.146;2023-08-08T00:16:56;95431.25;;;14.79;100.00
69570;BME280;56781;42.292;23.146;2023-08-08T00:19:23;95412.34;;;14.67;100.00
69570;BME280;56781;42.292;23.146;2023-08-08T00:21:51;95402.28;;;14.76;100.00
69570;BME280;56781;42.292;23.146;2023-08-08T00:24:18;95404.97;;;14.76;100.00
69570;BME280;56781;42.292;23.146;2023-08-08T00:26:45;95390.78;;;14.67;100.00
69570;BME280;56781;42.292;23.146;2023-08-08T00:29:12;95400.63;;;14.62;100.00
69570;BME280;56781;42.292;23.146;2023-08-08T00:31:39;95431.13;;;14.75;100.00
69570;BME280;56781;42.292;23.146;2023-08-08T00:34:06;95429.59;;;14.66;100.00
69570;BME280;56781;42.292;23.146;2023-08-08T00:36:34;95415.50;;;14.69;100.00
69570;BME280;56781;42.292;23.146;2023-08-08T00:39:01;95410.31;;;14.63;100.00
69570;BME280;56781;42.292;23.146;2023-08-08T00:41:28;95416.78;;;14.62;100.00
69570;BME280;56781;42.292;23.146;2023-08-08T00:43:55;95421.75;;;14.60;100.00
69570;BME280;56781;42.292;23.146;2023-08-08T00:46:22;95432.31;;;14.66;100.00
69570;BME280;56781;42.292;23.146;2023-08-08T00:48:51;95418.59;;;14.58;100.00
69570;BME280;56781;42.292;23.146;2023-08-08T00:51:20;95423.13;;;14.67;100.00
69570;BME280;56781;42.292;23.146;2023-08-08T00:53:49;95414.28;;;14.57;100.00
69570;BME280;56781;42.292;23.146;2023-08-08T00:56:17;95413.66;;;14.60;100.00
69570;BME280;56781;42.292;23.146;2023-08-08T00:58:44;95418.59;;;14.58;100.00
69570;BME280;56781;42.292;23.146;2023-08-08T01:01:17;95421.47;;;14.53;100.00
69570;BME280;56781;42.292;23.146;2023-08-08T01:03:45;95423.63;;;14.60;100.00
69570;BME280;56781;42.292;23.146;2023-08-08T01:06:33;95434.56;;;14.63;100.00
69570;BME280;56781;42.292;23.146;2023-08-08T01:09:18;95416.22;;;14.57;100.00
69570;BME280;56781;42.292;23.146;2023-08-08T01:11:47;95422.19;;;14.62;100.00
69570;BME280;56781;42.292;23.146;2023-08-08T01:14:17;95429.81;;;14.60;100.00
69570;BME280;56781;42.292;23.146;2023-08-08T01:16:45;95454.66;;;14.87;100.00
69570;BME280;56781;42.292;23.146;2023-08-08T01:19:18;95440.19;;;14.71;100.00
69570;BME280;56781;42.292;23.146;2023-08-08T01:21:52;95434.81;;;14.71;100.00
69570;BME280;56781;42.292;23.146;2023-08-08T01:24:22;95432.19;;;14.83;100.00
69570;BME280;56781;42.292;23.146;2023-08-08T01:26:50;95455.47;;;14.88;100.00
69570;BME280;56781;42.292;23.146;2023-08-08T01:29:17;95438.09;;;14.76;100.00
69570;BME280;56781;42.292;23.146;2023-08-08T01:31:45;95434.97;;;14.74;100.00
69570;BME280;56781;42.292;23.146;2023-08-08T01:34:12;95450.28;;;14.82;100.00
69570;BME280;56781;42.292;23.146;2023-08-08T01:36:48;95446.34;;;14.80;100.00
69570;BME280;56781;42.292;23.146;2023-08-08T01:39:22;95457.03;;;14.68;100.00
69570;BME280;56781;42.292;23.146;2023-08-08T01:41:54;95484.13;;;14.92;100.00
69570;BME280;56781;42.292;23.146;2023-08-08T01:44:22;95452.75;;;14.67;100.00
69570;BME280;56781;42.292;23.146;2023-08-08T01:46:53;95462.03;;;14.78;100.00
69570;BME280;56781;42.292;23.146;2023-08-08T01:49:20;95467.88;;;14.80;100.00
69570;BME280;56781;42.292;23.146;2023-08-08T01:51:48;95467.41;;;14.78;100.00
69570;BME280;56781;42.292;23.146;2023-08-08T01:54:17;95465.56;;;14.70;100.00
69570;BME280;56781;42.292;23.146;2023-08-08T01:56:44;95488.66;;;14.79;100.00
69570;BME280;56781;42.292;23.146;2023-08-08T01:59:12;95486.84;;;14.62;100.00
69570;BME280;56781;42.292;23.146;2023-08-08T02:01:41;95497.91;;;14.70;100.00
69570;BME280;56781;42.292;23.146;2023-08-08T02:04:09;95499.72;;;14.57;100.00
69570;BME280;56781;42.292;23.146;2023-08-08T02:06:36;95480.22;;;14.51;100.00
69570;BME280;56781;42.292;23.146;2023-08-08T02:09:03;95496.53;;;14.63;100.00
69570;BME280;56781;42.292;23.146;2023-08-08T02:11:30;95490.00;;;14.65;100.00
69570;BME280;56781;42.292;23.146;2023-08-08T02:13:58;95483.13;;;14.55;100.00
69570;BME280;56781;42.292;23.146;2023-08-08T02:16:25;95495.34;;;14.73;100.00
69570;BME280;56781;42.292;23.146;2023-08-08T02:18:52;95514.72;;;14.67;100.00
69570;BME280;56781;42.292;23.146;2023-08-08T02:21:19;95510.38;;;14.53;100.00
69570;BME280;56781;42.292;23.146;2023-08-08T02:23:47;95511.16;;;14.45;100.00
69570;BME280;56781;42.292;23.146;2023-08-08T02:26:14;95506.91;;;14.44;100.00
69570;BME280;56781;42.292;23.146;2023-08-08T02:28:41;95517.66;;;14.53;100.00
69570;BME280;56781;42.292;23.146;2023-08-08T02:31:08;95519.19;;;14.62;100.00
69570;BME280;56781;42.292;23.146;2023-08-08T02:33:35;95512.41;;;14.56;100.00
69570;BME280;56781;42.292;23.146;2023-08-08T02:36:03;95501.66;;;14.48;100.00
69570;BME280;56781;42.292;23.146;2023-08-08T02:38:30;95536.00;;;14.59;100.00
69570;BME280;56781;42.292;23.146;2023-08-08T02:40:57;95507.13;;;14.22;100.00
69570;BME280;56781;42.292;23.146;2023-08-08T02:43:24;95526.94;;;14.26;100.00
69570;BME280;56781;42.292;23.146;2023-08-08T02:45:51;95519.94;;;14.25;100.00
69570;BME280;56781;42.292;23.146;2023-08-08T02:48:19;95540.88;;;14.28;100.00
69570;BME280;56781;42.292;23.146;2023-08-08T02:50:46;95526.63;;;14.18;100.00
69570;BME280;56781;42.292;23.146;2023-08-08T02:53:13;95530.38;;;14.35;100.00
69570;BME280;56781;42.292;23.146;2023-08-08T02:55:40;95551.56;;;14.45;100.00
69570;BME280;56781;42.292;23.146;2023-08-08T02:58:07;95549.13;;;14.23;100.00
69570;BME280;56781;42.292;23.146;2023-08-08T03:00:35;95547.09;;;14.19;100.00
69570;BME280;56781;42.292;23.146;2023-08-08T03:03:02;95560.94;;;14.39;100.00
69570;BME280;56781;42.292;23.146;2023-08-08T03:05:29;95553.97;;;14.38;100.00
69570;BME280;56781;42.292;23.146;2023-08-08T03:07:57;95564.09;;;14.41;100.00
69570;BME280;56781;42.292;23.146;2023-08-08T03:10:25;95571.72;;;14.30;100.00
69570;BME280;56781;42.292;23.146;2023-08-08T03:12:52;95564.34;;;14.18;100.00
69570;BME280;56781;42.292;23.146;2023-08-08T03:15:19;95583.28;;;14.39;100.00
69570;BME280;56781;42.292;23.146;2023-08-08T03:17:46;95573.16;;;14.36;100.00
69570;BME280;56781;42.292;23.146;2023-08-08T03:20:14;95581.19;;;14.45;100.00
69570;BME280;56781;42.292;23.146;2023-08-08T03:22:41;95592.31;;;14.35;100.00
69570;BME280;56781;42.292;23.146;2023-08-08T03:25:08;95588.41;;;14.24;100.00
69570;BME280;56781;42.292;23.146;2023-08-08T03:27:35;95597.88;;;14.30;100.00
69570;BME280;56781;42.292;23.146;2023-08-08T03:30:03;95571.75;;;14.22;100.00
69570;BME280;56781;42.292;23.146;2023-08-08T03:32:30;95576.31;;;14.30;100.00
69570;BME280;56781;42.292;23.146;2023-08-08T03:34:58;95576.06;;;14.23;100.00
69570;BME280;56781;42.292;23.146;2023-08-08T03:37:25;95579.22;;;14.16;100.00
69570;BME280;56781;42.292;23.146;2023-08-08T03:39:52;95601.69;;;14.29;100.00
69570;BME280;56781;42.292;23.146;2023-08-08T03:42:19;95598.38;;;14.23;100.00
69570;BME280;56781;42.292;23.146;2023-08-08T03:44:46;95597.94;;;14.12;100.00
69570;BME280;56781;42.292;23.146;2023-08-08T03:47:13;95593.19;;;14.09;100.00
69570;BME280;56781;42.292;23.146;2023-08-08T03:49:45;95611.88;;;14.14;100.00
69570;BME280;56781;42.292;23.146;2023-08-08T03:52:12;95614.25;;;14.07;100.00
69570;BME280;56781;42.292;23.146;2023-08-08T03:54:40;95594.94;;;13.96;100.00
69570;BME280;56781;42.292;23.146;2023-08-08T03:57:07;95583.25;;;13.92;100.00
69570;BME280;56781;42.292;23.146;2023-08-08T03:59:34;95584.06;;;13.84;100.00
69570;BME280;56781;42.292;23.146;2023-08-08T04:02:02;95599.41;;;13.92;100.00
69570;BME280;56781;42.292;23.146;2023-08-08T04:04:29;95596.06;;;13.95;100.00
69570;BME280;56781;42.292;23.146;2023-08-08T04:06:57;95604.28;;;13.99;100.00
69570;BME280;56781;42.292;23.146;2023-08-08T04:09:24;95586.38;;;13.94;100.00
69570;BME280;56781;42.292;23.146;2023-08-08T04:11:52;95587.19;;;13.95;100.00
69570;BME280;56781;42.292;23.146;2023-08-08T04:14:19;95601.44;;;14.04;100.00
69570;BME280;56781;42.292;23.146;2023-08-08T04:16:46;95605.84;;;14.17;100.00
69570;BME280;56781;42.292;23.146;2023-08-08T04:19:14;95591.91;;;14.15;100.00
69570;BME280;56781;42.292;23.146;2023-08-08T04:21:41;95582.25;;;14.06;100.00
69570;BME280;56781;42.292;23.146;2023-08-08T04:24:08;95603.94;;;14.18;100.00
69570;BME280;56781;42.292;23.146;2023-08-08T04:26:35;95612.47;;;14.29;100.00
69570;BME280;56781;42.292;23.146;2023-08-08T04:29:02;95598.84;;;14.16;100.00
69570;BME280;56781;42.292;23.146;2023-08-08T04:31:30;95604.56;;;14.24;100.00
69570;BME280;56781;42.292;23.146;2023-08-08T04:33:57;95588.41;;;14.15;100.00
69570;BME280;56781;42.292;23.146;2023-08-08T04:36:28;95597.28;;;14.15;100.00
69570;BME280;56781;42.292;23.146;2023-08-08T04:38:55;95592.66;;;14.25;100.00
69570;BME280;56781;42.292;23.146;2023-08-08T04:41:23;95594.56;;;14.24;100.00
69570;BME280;56781;42.292;23.146;2023-08-08T04:43:50;95604.03;;;14.30;100.00
69570;BME280;56781;42.292;23.146;2023-08-08T04:46:17;95623.81;;;14.43;100.00
69570;BME280;56781;42.292;23.146;2023-08-08T04:48:45;95623.81;;;14.43;100.00
69570;BME280;56781;42.292;23.146;2023-08-08T04:51:12;95606.47;;;14.14;100.00
69570;BME280;56781;42.292;23.146;2023-08-08T04:53:39;95619.28;;;14.26;100.00
69570;BME280;56781;42.292;23.146;2023-08-08T04:56:07;95618.78;;;14.24;100.00
69570;BME280;56781;42.292;23.146;2023-08-08T04:58:34;95634.31;;;14.36;100.00
69570;BME280;56781;42.292;23.146;2023-08-08T05:01:01;95615.16;;;14.29;100.00
69570;BME280;56781;42.292;23.146;2023-08-08T05:03:28;95625.13;;;14.37;100.00
69570;BME280;56781;42.292;23.146;2023-08-08T05:05:59;95626.19;;;14.45;100.00
69570;BME280;56781;42.292;23.146;2023-08-08T05:08:26;95643.94;;;14.54;100.00
69570;BME280;56781;42.292;23.146;2023-08-08T05:10:53;95630.28;;;14.51;100.00
69570;BME280;56781;42.292;23.146;2023-08-08T05:13:20;95650.38;;;14.71;100.00
69570;BME280;56781;42.292;23.146;2023-08-08T05:15:47;95633.94;;;14.63;100.00
69570;BME280;56781;42.292;23.146;2023-08-08T05:18:15;95649.56;;;14.79;100.00
69570;BME280;56781;42.292;23.146;2023-08-08T05:20:42;95656.19;;;14.90;100.00
69570;BME280;56781;42.292;23.146;2023-08-08T05:23:09;95660.75;;;14.98;100.00
69570;BME280;56781;42.292;23.146;2023-08-08T05:25:36;95682.59;;;15.05;100.00
69570;BME280;56781;42.292;23.146;2023-08-08T05:28:03;95673.41;;;14.98;100.00
69570;BME280;56781;42.292;23.146;2023-08-08T05:30:31;95666.75;;;14.95;100.00
69570;BME280;56781;42.292;23.146;2023-08-08T05:32:58;95691.81;;;15.64;100.00
69570;BME280;56781;42.292;23.146;2023-08-08T05:35:25;95682.63;;;16.07;100.00
69570;BME280;56781;42.292;23.146;2023-08-08T05:37:52;95687.03;;;16.45;100.00
69570;BME280;56781;42.292;23.146;2023-08-08T05:40:19;95670.97;;;16.27;100.00
69570;BME280;56781;42.292;23.146;2023-08-08T05:42:46;95684.19;;;16.41;100.00
69570;BME280;56781;42.292;23.146;2023-08-08T05:45:14;95688.63;;;16.46;100.00
69570;BME280;56781;42.292;23.146;2023-08-08T05:47:41;95706.88;;;16.28;100.00
69570;BME280;56781;42.292;23.146;2023-08-08T05:50:08;95670.50;;;16.13;100.00
69570;BME280;56781;42.292;23.146;2023-08-08T05:52:35;95694.22;;;16.07;100.00
69570;BME280;56781;42.292;23.146;2023-08-08T05:55:03;95682.28;;;15.87;100.00
69570;BME280;56781;42.292;23.146;2023-08-08T05:57:30;95712.38;;;15.77;100.00
69570;BME280;56781;42.292;23.146;2023-08-08T05:59:57;95708.66;;;15.61;100.00
69570;BME280;56781;42.292;23.146;2023-08-08T06:02:27;95700.00;;;15.76;100.00
69570;BME280;56781;42.292;23.146;2023-08-08T06:04:55;95708.63;;;16.11;100.00
69570;BME280;56781;42.292;23.146;2023-08-08T06:07:22;95722.91;;;16.66;100.00
69570;BME280;56781;42.292;23.146;2023-08-08T06:09:49;95702.63;;;17.05;100.00
69570;BME280;56781;42.292;23.146;2023-08-08T06:12:16;95699.59;;;17.44;100.00
69570;BME280;56781;42.292;23.146;2023-08-08T06:14:43;95718.97;;;17.70;100.00
69570;BME280;56781;42.292;23.146;2023-08-08T06:17:10;95729.28;;;18.17;100.00
69570;BME280;56781;42.292;23.146;2023-08-08T06:19:38;95725.41;;;17.78;100.00
69570;BME280;56781;42.292;23.146;2023-08-08T06:22:05;95741.06;;;17.23;100.00
69570;BME280;56781;42.292;23.146;2023-08-08T06:24:32;95736.34;;;17.45;100.00
69570;BME280;56781;42.292;23.146;2023-08-08T06:26:59;95751.00;;;17.32;100.00
69570;BME280;56781;42.292;23.146;2023-08-08T06:29:26;95740.03;;;17.03;100.00
69570;BME280;56781;42.292;23.146;2023-08-08T06:31:54;95735.88;;;16.94;100.00
69570;BME280;56781;42.292;23.146;2023-08-08T06:34:21;95741.13;;;16.78;97.97
69570;BME280;56781;42.292;23.146;2023-08-08T06:36:49;95738.22;;;16.62;96.80
69570;BME280;56781;42.292;23.146;2023-08-08T06:39:16;95730.41;;;16.48;100.00
69570;BME280;56781;42.292;23.146;2023-08-08T06:41:46;95747.19;;;16.54;99.32
69570;BME280;56781;42.292;23.146;2023-08-08T06:44:13;95721.38;;;16.44;100.00
69570;BME280;56781;42.292;23.146;2023-08-08T06:46:40;95724.06;;;16.44;97.07
69570;BME280;56781;42.292;23.146;2023-08-08T06:49:07;95730.59;;;16.43;97.29
69570;BME280;56781;42.292;23.146;2023-08-08T06:51:35;95725.09;;;16.39;98.89
69570;BME280;56781;42.292;23.146;2023-08-08T06:54:03;95731.19;;;16.49;100.00
69570;BME280;56781;42.292;23.146;2023-08-08T06:56:30;95733.56;;;16.50;100.00
69570;BME280;56781;42.292;23.146;2023-08-08T06:58:57;95720.13;;;16.42;99.78
69570;BME280;56781;42.292;23.146;2023-08-08T07:01:24;95760.03;;;16.57;92.77
69570;BME280;56781;42.292;23.146;2023-08-08T07:03:51;95754.75;;;16.60;93.19
69570;BME280;56781;42.292;23.146;2023-08-08T07:06:19;95752.13;;;16.52;93.80
69570;BME280;56781;42.292;23.146;2023-08-08T07:08:46;95739.97;;;16.46;92.58
69570;BME280;56781;42.292;23.146;2023-08-08T07:11:13;95759.94;;;16.53;91.44
69570;BME280;56781;42.292;23.146;2023-08-08T07:13:40;95748.97;;;16.50;92.92
69570;BME280;56781;42.292;23.146;2023-08-08T07:16:08;95758.91;;;16.58;92.75
69570;BME280;56781;42.292;23.146;2023-08-08T07:18:35;95758.03;;;16.66;94.75
69570;BME280;56781;42.292;23.146;2023-08-08T07:21:03;95738.00;;;16.67;93.46
69570;BME280;56781;42.292;23.146;2023-08-08T07:23:30;95765.69;;;16.85;92.93
69570;BME280;56781;42.292;23.146;2023-08-08T07:25:57;95739.50;;;16.77;97.20
69570;BME280;56781;42.292;23.146;2023-08-08T07:28:24;95761.78;;;16.95;94.51
69570;BME280;56781;42.292;23.146;2023-08-08T07:31:09;95741.38;;;16.97;92.73
69570;BME280;56781;42.292;23.146;2023-08-08T07:33:36;95760.31;;;17.10;93.45
69570;BME280;56781;42.292;23.146;2023-08-08T07:36:04;95741.75;;;17.08;93.18
69570;BME280;56781;42.292;23.146;2023-08-08T07:38:31;95750.00;;;17.24;95.07
69570;BME280;56781;42.292;23.146;2023-08-08T07:41:00;95744.22;;;17.25;89.30
69570;BME280;56781;42.292;23.146;2023-08-08T07:43:27;95756.41;;;17.32;91.94
69570;BME280;56781;42.292;23.146;2023-08-08T07:45:54;95735.91;;;17.18;90.61
69570;BME280;56781;42.292;23.146;2023-08-08T07:48:22;95762.75;;;17.48;92.16
69570;BME280;56781;42.292;23.146;2023-08-08T07:50:49;95744.13;;;17.59;86.77
69570;BME280;56781;42.292;23.146;2023-08-08T07:53:16;95746.06;;;17.70;81.74
69570;BME280;56781;42.292;23.146;2023-08-08T07:55:44;95749.88;;;17.69;83.34
69570;BME280;56781;42.292;23.146;2023-08-08T07:58:11;95760.22;;;18.57;82.80
69570;BME280;56781;42.292;23.146;2023-08-08T08:00:38;95739.75;;;18.88;83.89
69570;BME280;56781;42.292;23.146;2023-08-08T08:03:05;95740.38;;;19.60;82.40
69570;BME280;56781;42.292;23.146;2023-08-08T08:05:33;95741.81;;;20.25;83.38
69570;BME280;56781;42.292;23.146;2023-08-08T08:08:01;95734.59;;;20.52;81.45
69570;BME280;56781;42.292;23.146;2023-08-08T08:10:29;95735.59;;;21.02;76.26
69570;BME280;56781;42.292;23.146;2023-08-08T08:12:56;95732.13;;;21.05;75.93
69570;BME280;56781;42.292;23.146;2023-08-08T08:15:26;95720.28;;;21.17;75.17
69570;BME280;56781;42.292;23.146;2023-08-08T08:17:53;95719.69;;;21.77;76.09
69570;BME280;56781;42.292;23.146;2023-08-08T08:20:21;95714.66;;;21.79;71.67
69570;BME280;56781;42.292;23.146;2023-08-08T08:22:48;95720.38;;;21.70;69.11
69570;BME280;56781;42.292;23.146;2023-08-08T08:25:15;95726.34;;;22.06;70.62
69570;BME280;56781;42.292;23.146;2023-08-08T08:27:42;95728.78;;;22.14;72.28
69570;BME280;56781;42.292;23.146;2023-08-08T08:30:10;95715.00;;;22.04;70.40
69570;BME280;56781;42.292;23.146;2023-08-08T08:32:39;95719.75;;;21.31;74.37
69570;BME280;56781;42.292;23.146;2023-08-08T08:35:07;95732.44;;;21.00;69.68
69570;BME280;56781;42.292;23.146;2023-08-08T08:37:35;95715.06;;;20.85;67.41
69570;BME280;56781;42.292;23.146;2023-08-08T08:40:02;95726.97;;;21.00;72.18
69570;BME280;56781;42.292;23.146;2023-08-08T08:42:32;95729.34;;;21.01;73.38
69570;BME280;56781;42.292;23.146;2023-08-08T08:45:01;95712.41;;;20.89;74.89
69570;BME280;56781;42.292;23.146;2023-08-08T08:47:30;95729.59;;;20.34;70.32
69570;BME280;56781;42.292;23.146;2023-08-08T08:49:58;95728.50;;;20.55;68.79
69570;BME280;56781;42.292;23.146;2023-08-08T08:52:26;95733.22;;;21.00;74.18
69570;BME280;56781;42.292;23.146;2023-08-08T08:54:53;95734.19;;;21.58;72.82
69570;BME280;56781;42.292;23.146;2023-08-08T08:57:21;95711.50;;;21.77;69.60
69570;BME280;56781;42.292;23.146;2023-08-08T08:59:50;95714.22;;;21.77;68.44
69570;BME280;56781;42.292;23.146;2023-08-08T09:02:18;95710.84;;;21.57;70.33
69570;BME280;56781;42.292;23.146;2023-08-08T09:04:45;95710.38;;;21.78;72.65
69570;BME280;56781;42.292;23.146;2023-08-08T09:07:14;95729.13;;;21.83;66.27
69570;BME280;56781;42.292;23.146;2023-08-08T09:09:43;95714.97;;;21.74;64.04
69570;BME280;56781;42.292;23.146;2023-08-08T09:12:10;95726.09;;;21.88;64.57
69570;BME280;56781;42.292;23.146;2023-08-08T09:14:42;95725.13;;;22.30;69.21
69570;BME280;56781;42.292;23.146;2023-08-08T09:17:11;95723.00;;;22.50;66.27
69570;BME280;56781;42.292;23.146;2023-08-08T09:19:43;95714.63;;;22.32;62.04
69570;BME280;56781;42.292;23.146;2023-08-08T09:22:12;95707.19;;;22.29;63.40
69570;BME280;56781;42.292;23.146;2023-08-08T09:24:40;95721.16;;;22.24;65.42
69570;BME280;56781;42.292;23.146;2023-08-08T09:27:08;95722.50;;;22.10;67.25
69570;BME280;56781;42.292;23.146;2023-08-08T09:29:37;95711.81;;;22.25;67.91
69570;BME280;56781;42.292;23.146;2023-08-08T09:32:05;95722.25;;;22.19;68.33
69570;BME280;56781;42.292;23.146;2023-08-08T09:34:33;95712.41;;;22.41;65.47
69570;BME280;56781;42.292;23.146;2023-08-08T09:37:01;95724.44;;;22.70;64.49
69570;BME280;56781;42.292;23.146;2023-08-08T09:39:29;95732.41;;;22.52;59.70
69570;BME280;56781;42.292;23.146;2023-08-08T09:41:56;95725.56;;;22.05;65.65
69570;BME280;56781;42.292;23.146;2023-08-08T09:44:24;95717.94;;;21.88;66.13
69570;BME280;56781;42.292;23.146;2023-08-08T09:46:53;95729.09;;;22.36;68.33
69570;BME280;56781;42.292;23.146;2023-08-08T09:49:21;95733.31;;;22.03;62.60
69570;BME280;56781;42.292;23.146;2023-08-08T09:51:50;95725.28;;;20.92;62.56
69570;BME280;56781;42.292;23.146;2023-08-08T09:54:18;95741.78;;;20.60;66.84
69570;BME280;56781;42.292;23.146;2023-08-08T09:56:46;95712.34;;;20.27;68.90
69570;BME280;56781;42.292;23.146;2023-08-08T09:59:16;95732.75;;;20.36;68.78
69570;BME280;56781;42.292;23.146;2023-08-08T10:01:46;95736.22;;;21.38;62.68
69570;BME280;56781;42.292;23.146;2023-08-08T10:04:14;95732.38;;;21.92;58.05
69570;BME280;56781;42.292;23.146;2023-08-08T10:06:42;95719.34;;;22.08;62.13
69570;BME280;56781;42.292;23.146;2023-08-08T10:09:09;95725.81;;;21.43;66.67
69570;BME280;56781;42.292;23.146;2023-08-08T10:11:36;95734.13;;;21.08;67.43
69570;BME280;56781;42.292;23.146;2023-08-08T10:14:04;95713.28;;;20.73;68.78
69570;BME280;56781;42.292;23.146;2023-08-08T10:16:34;95717.31;;;20.79;72.67
69570;BME280;56781;42.292;23.146;2023-08-08T10:19:03;95724.34;;;21.27;68.34
69570;BME280;56781;42.292;23.146;2023-08-08T10:21:35;95740.34;;;21.78;63.34
69570;BME280;56781;42.292;23.146;2023-08-08T10:26:30;95721.91;;;22.21;66.97
69570;BME280;56781;42.292;23.146;2023-08-08T10:28:59;95728.28;;;22.32;63.99
69570;BME280;56781;42.292;23.146;2023-08-08T10:31:33;95734.16;;;22.07;61.64
69570;BME280;56781;42.292;23.146;2023-08-08T10:34:03;95725.25;;;21.34;63.91
69570;BME280;56781;42.292;23.146;2023-08-08T10:36:48;95721.84;;;21.64;66.28
69570;BME280;56781;42.292;23.146;2023-08-08T10:39:18;95708.59;;;21.89;60.25
69570;BME280;56781;42.292;23.146;2023-08-08T10:41:47;95721.66;;;22.06;59.33
69570;BME280;56781;42.292;23.146;2023-08-08T10:44:22;95708.78;;;21.77;55.74
69570;BME280;56781;42.292;23.146;2023-08-08T10:46:51;95714.78;;;21.86;63.41
69570;BME280;56781;42.292;23.146;2023-08-08T10:49:19;95716.56;;;22.01;54.03
69570;BME280;56781;42.292;23.146;2023-08-08T10:51:48;95716.06;;;21.96;57.19
69570;BME280;56781;42.292;23.146;2023-08-08T10:54:19;95714.63;;;22.32;58.12
69570;BME280;56781;42.292;23.146;2023-08-08T10:56:51;95695.97;;;22.34;62.89
69570;BME280;56781;42.292;23.146;2023-08-08T10:59:23;95703.13;;;21.62;63.79
69570;BME280;56781;42.292;23.146;2023-08-08T11:01:51;95705.94;;;20.74;61.79
69570;BME280;56781;42.292;23.146;2023-08-08T11:04:22;95696.19;;;20.73;63.03
69570;BME280;56781;42.292;23.146;2023-08-08T11:06:50;95694.13;;;21.35;61.69
69570;BME280;56781;42.292;23.146;2023-08-08T11:09:19;95705.59;;;21.98;63.95
69570;BME280;56781;42.292;23.146;2023-08-08T11:11:46;95703.31;;;22.30;58.13
69570;BME280;56781;42.292;23.146;2023-08-08T11:14:20;95707.97;;;22.29;59.01
69570;BME280;56781;42.292;23.146;2023-08-08T11:16:49;95714.59;;;22.28;56.74
69570;BME280;56781;42.292;23.146;2023-08-08T11:19:18;95685.13;;;22.11;58.12
69570;BME280;56781;42.292;23.146;2023-08-08T11:21:49;95693.56;;;22.29;58.98
69570;BME280;56781;42.292;23.146;2023-08-08T11:24:17;95702.09;;;22.27;60.39
69570;BME280;56781;42.292;23.146;2023-08-08T11:26:45;95707.38;;;22.47;58.77
69570;BME280;56781;42.292;23.146;2023-08-08T11:29:14;95694.63;;;22.21;56.00
69570;BME280;56781;42.292;23.146;2023-08-08T11:31:42;95696.78;;;22.38;59.68
69570;BME280;56781;42.292;23.146;2023-08-08T11:34:09;95697.44;;;22.62;60.06
69570;BME280;56781;42.292;23.146;2023-08-08T11:36:37;95680.41;;;22.72;57.85
69570;BME280;56781;42.292;23.146;2023-08-08T11:39:05;95676.72;;;22.57;55.98
69570;BME280;56781;42.292;23.146;2023-08-08T11:41:37;95686.41;;;22.51;57.78
69570;BME280;56781;42.292;23.146;2023-08-08T11:44:06;95693.69;;;22.40;55.62
69570;BME280;56781;42.292;23.146;2023-08-08T11:46:46;95709.34;;;22.16;56.00
69570;BME280;56781;42.292;23.146;2023-08-08T11:49:17;95676.22;;;21.87;55.45
69570;BME280;56781;42.292;23.146;2023-08-08T11:51:45;95703.75;;;22.35;57.52
69570;BME280;56781;42.292;23.146;2023-08-08T11:54:13;95681.06;;;22.62;55.37
69570;BME280;56781;42.292;23.146;2023-08-08T11:56:40;95689.81;;;22.78;58.68
69570;BME280;56781;42.292;23.146;2023-08-08T11:59:08;95678.56;;;21.85;60.75
69570;BME280;56781;42.292;23.146;2023-08-08T12:01:36;95692.00;;;22.01;60.70
69570;BME280;56781;42.292;23.146;2023-08-08T12:04:08;95675.56;;;21.94;58.54
69570;BME280;56781;42.292;23.146;2023-08-08T12:06:38;95667.47;;;22.31;62.66
69570;BME280;56781;42.292;23.146;2023-08-08T12:09:07;95677.59;;;22.31;59.65
69570;BME280;56781;42.292;23.146;2023-08-08T12:11:35;95683.78;;;22.28;58.88
69570;BME280;56781;42.292;23.146;2023-08-08T12:14:04;95658.69;;;22.15;60.75
69570;BME280;56781;42.292;23.146;2023-08-08T12:16:31;95662.69;;;22.21;56.42
69570;BME280;56781;42.292;23.146;2023-08-08T12:19:07;95658.09;;;22.29;58.63
69570;BME280;56781;42.292;23.146;2023-08-08T12:21:34;95652.44;;;22.14;55.04
69570;BME280;56781;42.292;23.146;2023-08-08T12:24:01;95638.69;;;22.34;59.24
69570;BME280;56781;42.292;23.146;2023-08-08T12:26:29;95652.66;;;22.29;60.89
69570;BME280;56781;42.292;23.146;2023-08-08T12:28:56;95638.31;;;22.39;58.12
69570;BME280;56781;42.292;23.146;2023-08-08T12:31:23;95643.19;;;22.56;55.41
69570;BME280;56781;42.292;23.146;2023-08-08T12:33:51;95626.53;;;22.69;58.96
69570;BME280;56781;42.292;23.146;2023-08-08T12:36:21;95631.50;;;22.56;57.62
69570;BME280;56781;42.292;23.146;2023-08-08T12:38:49;95621.38;;;22.56;55.57
69570;BME280;56781;42.292;23.146;2023-08-08T12:41:16;95615.94;;;22.60;60.50
69570;BME280;56781;42.292;23.146;2023-08-08T12:43:43;95616.91;;;22.41;54.80
69570;BME280;56781;42.292;23.146;2023-08-08T12:46:10;95618.78;;;22.74;55.81
69570;BME280;56781;42.292;23.146;2023-08-08T12:48:37;95638.41;;;22.87;55.05
69570;BME280;56781;42.292;23.146;2023-08-08T12:51:04;95633.28;;;22.78;56.28
69570;BME280;56781;42.292;23.146;2023-08-08T12:53:34;95628.38;;;22.57;55.13